sensor_id;sensor_type;location;lat;lon;timestamp;P1;durP1;ratioP1;P2;durP2;ratioP2
32523;SDS011;18965;52.242;20.886;2023-02-15T14:34:35;196.70;;;115.20;;
32523;SDS011;18965;52.242;20.886;2023-02-15T14:37:03;213.00;;;122.50;;
32523;SDS011;18965;52.242;20.886;2023-02-15T14:45:05;236.57;;;111.78;;
32523;SDS011;18965;52.242;20.886;2023-02-15T14:47:40;249.70;;;119.30;;
32523;SDS011;18965;52.242;20.886;2023-02-15T14:55:39;249.77;;;131.00;;
32523;SDS011;18965;52.242;20.886;2023-02-15T14:58:09;241.00;;;123.65;;
32523;SDS011;18965;52.242;20.886;2023-02-15T15:00:38;248.65;;;142.77;;
32523;SDS011;18965;52.242;20.886;2023-02-15T15:03:18;211.85;;;103.07;;
32523;SDS011;18965;52.242;20.886;2023-02-15T15:05:52;215.20;;;95.72;;
32523;SDS011;18965;52.242;20.886;2023-02-15T15:08:22;223.88;;;90.35;;
32523;SDS011;18965;52.242;20.886;2023-02-15T15:10:53;233.00;;;94.45;;
32523;SDS011;18965;52.242;20.886;2023-02-15T15:15:55;234.18;;;95.55;;
32523;SDS011;18965;52.242;20.886;2023-02-15T15:21:10;246.15;;;99.60;;
32523;SDS011;18965;52.242;20.886;2023-02-15T15:26:22;237.05;;;90.18;;
32523;SDS011;18965;52.242;20.886;2023-02-15T15:39:21;241.82;;;94.05;;
32523;SDS011;18965;52.242;20.886;2023-02-15T15:50:11;237.88;;;89.10;;
32523;SDS011;18965;52.242;20.886;2023-02-15T15:52:39;230.82;;;85.60;;
32523;SDS011;18965;52.242;20.886;2023-02-15T15:55:14;242.18;;;89.70;;
32523;SDS011;18965;52.242;20.886;2023-02-15T15:57:43;236.30;;;90.47;;
32523;SDS011;18965;52.242;20.886;2023-02-15T16:03:23;246.10;;;88.60;;
32523;SDS011;18965;52.242;20.886;2023-02-15T16:05:50;245.10;;;89.88;;
32523;SDS011;18965;52.242;20.886;2023-02-15T16:08:27;245.85;;;89.13;;
32523;SDS011;18965;52.242;20.886;2023-02-15T16:10:53;235.45;;;88.20;;
32523;SDS011;18965;52.242;20.886;2023-02-15T16:13:18;239.70;;;87.70;;
32523;SDS011;18965;52.242;20.886;2023-02-15T16:15:45;240.02;;;89.05;;
32523;SDS011;18965;52.242;20.886;2023-02-15T16:18:17;258.15;;;93.50;;
32523;SDS011;18965;52.242;20.886;2023-02-15T16:20:53;245.73;;;88.45;;
32523;SDS011;18965;52.242;20.886;2023-02-15T16:26:18;244.25;;;91.07;;
32523;SDS011;18965;52.242;20.886;2023-02-15T16:29:18;245.18;;;93.85;;
32523;SDS011;18965;52.242;20.886;2023-02-15T16:32:02;257.30;;;99.55;;
32523;SDS011;18965;52.242;20.886;2023-02-15T16:34:30;250.27;;;94.80;;
32523;SDS011;18965;52.242;20.886;2023-02-15T16:37:18;252.90;;;95.45;;
32523;SDS011;18965;52.242;20.886;2023-02-15T16:39:48;250.98;;;95.30;;
32523;SDS011;18965;52.242;20.886;2023-02-15T16:42:15;252.63;;;95.85;;
32523;SDS011;18965;52.242;20.886;2023-02-15T16:44:43;246.38;;;94.45;;
32523;SDS011;18965;52.242;20.886;2023-02-15T16:47:17;249.57;;;95.25;;
32523;SDS011;18965;52.242;20.886;2023-02-15T16:49:49;266.23;;;113.43;;
32523;SDS011;18965;52.242;20.886;2023-02-15T16:52:21;256.45;;;97.65;;
32523;SDS011;18965;52.242;20.886;2023-02-15T16:54:56;246.95;;;94.40;;
32523;SDS011;18965;52.242;20.886;2023-02-15T16:57:25;252.27;;;94.20;;
32523;SDS011;18965;52.242;20.886;2023-02-15T16:59:54;239.18;;;90.80;;
32523;SDS011;18965;52.242;20.886;2023-02-15T17:02:26;248.63;;;93.40;;
32523;SDS011;18965;52.242;20.886;2023-02-15T17:07:39;272.17;;;100.82;;
32523;SDS011;18965;52.242;20.886;2023-02-15T17:11:15;254.90;;;94.22;;
32523;SDS011;18965;52.242;20.886;2023-02-15T17:13:27;307.25;;;110.43;;
32523;SDS011;18965;52.242;20.886;2023-02-15T17:18:29;303.23;;;117.53;;
32523;SDS011;18965;52.242;20.886;2023-02-15T17:21:10;257.98;;;96.45;;
32523;SDS011;18965;52.242;20.886;2023-02-15T17:23:43;246.60;;;93.18;;
32523;SDS011;18965;52.242;20.886;2023-02-15T17:26:15;251.90;;;95.50;;
32523;SDS011;18965;52.242;20.886;2023-02-15T17:28:50;247.13;;;94.78;;
32523;SDS011;18965;52.242;20.886;2023-02-15T17:31:19;250.93;;;92.32;;
32523;SDS011;18965;52.242;20.886;2023-02-15T17:33:46;241.88;;;92.95;;
32523;SDS011;18965;52.242;20.886;2023-02-15T17:36:19;249.90;;;93.70;;
32523;SDS011;18965;52.242;20.886;2023-02-15T17:41:24;248.23;;;93.78;;
32523;SDS011;18965;52.242;20.886;2023-02-15T17:43:51;245.55;;;93.28;;
32523;SDS011;18965;52.242;20.886;2023-02-15T17:46:17;248.90;;;93.07;;
32523;SDS011;18965;52.242;20.886;2023-02-15T17:48:50;241.95;;;90.65;;
32523;SDS011;18965;52.242;20.886;2023-02-15T17:51:17;243.30;;;92.07;;
32523;SDS011;18965;52.242;20.886;2023-02-15T17:53:44;240.35;;;90.97;;
32523;SDS011;18965;52.242;20.886;2023-02-15T17:56:34;238.10;;;91.32;;
32523;SDS011;18965;52.242;20.886;2023-02-15T17:59:00;234.50;;;89.18;;
32523;SDS011;18965;52.242;20.886;2023-02-15T18:01:31;235.65;;;90.25;;
32523;SDS011;18965;52.242;20.886;2023-02-15T18:04:16;240.15;;;90.10;;
32523;SDS011;18965;52.242;20.886;2023-02-15T18:07:01;247.45;;;92.68;;
32523;SDS011;18965;52.242;20.886;2023-02-15T18:09:45;244.98;;;90.15;;
32523;SDS011;18965;52.242;20.886;2023-02-15T18:12:33;242.20;;;90.32;;
32523;SDS011;18965;52.242;20.886;2023-02-15T18:15:03;244.07;;;94.13;;
32523;SDS011;18965;52.242;20.886;2023-02-15T18:17:40;251.18;;;93.15;;
32523;SDS011;18965;52.242;20.886;2023-02-15T18:20:17;242.52;;;92.30;;
32523;SDS011;18965;52.242;20.886;2023-02-15T18:22:45;244.77;;;91.38;;
32523;SDS011;18965;52.242;20.886;2023-02-15T18:25:14;251.07;;;93.22;;
32523;SDS011;18965;52.242;20.886;2023-02-15T18:27:43;244.20;;;91.50;;
32523;SDS011;18965;52.242;20.886;2023-02-15T18:30:16;243.68;;;92.05;;
32523;SDS011;18965;52.242;20.886;2023-02-15T18:32:47;240.82;;;90.28;;
32523;SDS011;18965;52.242;20.886;2023-02-15T18:35:16;238.65;;;91.55;;
32523;SDS011;18965;52.242;20.886;2023-02-15T18:37:44;243.65;;;92.00;;
32523;SDS011;18965;52.242;20.886;2023-02-15T18:40:14;239.32;;;91.50;;
32523;SDS011;18965;52.242;20.886;2023-02-15T18:42:41;245.65;;;92.53;;
32523;SDS011;18965;52.242;20.886;2023-02-15T18:45:15;244.57;;;90.65;;
32523;SDS011;18965;52.242;20.886;2023-02-15T18:47:42;240.32;;;90.28;;
32523;SDS011;18965;52.242;20.886;2023-02-15T18:50:10;238.98;;;92.20;;
32523;SDS011;18965;52.242;20.886;2023-02-15T18:52:37;241.38;;;93.80;;
32523;SDS011;18965;52.242;20.886;2023-02-15T18:55:04;243.02;;;92.32;;
32523;SDS011;18965;52.242;20.886;2023-02-15T18:57:47;246.82;;;92.32;;
32523;SDS011;18965;52.242;20.886;2023-02-15T19:00:15;241.65;;;90.63;;
32523;SDS011;18965;52.242;20.886;2023-02-15T19:02:45;248.10;;;93.38;;
32523;SDS011;18965;52.242;20.886;2023-02-15T19:05:10;247.68;;;92.72;;
32523;SDS011;18965;52.242;20.886;2023-02-15T19:07:37;250.30;;;94.78;;
32523;SDS011;18965;52.242;20.886;2023-02-15T19:10:03;253.15;;;93.68;;
32523;SDS011;18965;52.242;20.886;2023-02-15T19:12:32;248.93;;;94.10;;
32523;SDS011;18965;52.242;20.886;2023-02-15T19:14:57;250.63;;;91.65;;
32523;SDS011;18965;52.242;20.886;2023-02-15T19:17:23;249.57;;;92.43;;
32523;SDS011;18965;52.242;20.886;2023-02-15T19:19:50;252.98;;;93.13;;
32523;SDS011;18965;52.242;20.886;2023-02-15T19:24:48;245.02;;;92.50;;
32523;SDS011;18965;52.242;20.886;2023-02-15T19:27:23;252.90;;;95.28;;
32523;SDS011;18965;52.242;20.886;2023-02-15T19:29:54;255.63;;;96.63;;
32523;SDS011;18965;52.242;20.886;2023-02-15T19:32:22;259.83;;;96.15;;
32523;SDS011;18965;52.242;20.886;2023-02-15T19:34:48;256.10;;;95.50;;
32523;SDS011;18965;52.242;20.886;2023-02-15T19:37:21;273.70;;;98.00;;
32523;SDS011;18965;52.242;20.886;2023-02-15T19:39:54;252.40;;;94.80;;
32523;SDS011;18965;52.242;20.886;2023-02-15T19:42:21;251.80;;;94.82;;
32523;SDS011;18965;52.242;20.886;2023-02-15T19:44:48;255.38;;;95.93;;
32523;SDS011;18965;52.242;20.886;2023-02-15T19:47:15;254.32;;;95.50;;
32523;SDS011;18965;52.242;20.886;2023-02-15T19:49:41;249.88;;;94.13;;
32523;SDS011;18965;52.242;20.886;2023-02-15T19:52:17;251.27;;;94.93;;
32523;SDS011;18965;52.242;20.886;2023-02-15T19:54:44;256.40;;;97.13;;
32523;SDS011;18965;52.242;20.886;2023-02-15T19:57:10;255.57;;;97.07;;
32523;SDS011;18965;52.242;20.886;2023-02-15T19:59:37;254.77;;;95.78;;
32523;SDS011;18965;52.242;20.886;2023-02-15T20:02:03;259.55;;;96.68;;
32523;SDS011;18965;52.242;20.886;2023-02-15T20:04:29;256.80;;;94.80;;
32523;SDS011;18965;52.242;20.886;2023-02-15T20:06:56;263.40;;;96.50;;
32523;SDS011;18965;52.242;20.886;2023-02-15T20:09:27;270.63;;;96.85;;
32523;SDS011;18965;52.242;20.886;2023-02-15T20:11:56;253.73;;;94.25;;
32523;SDS011;18965;52.242;20.886;2023-02-15T20:14:22;257.98;;;96.45;;
32523;SDS011;18965;52.242;20.886;2023-02-15T20:16:48;252.30;;;94.50;;
32523;SDS011;18965;52.242;20.886;2023-02-15T20:19:14;253.85;;;95.50;;
32523;SDS011;18965;52.242;20.886;2023-02-15T20:21:41;247.40;;;94.75;;
32523;SDS011;18965;52.242;20.886;2023-02-15T20:24:14;254.00;;;94.75;;
32523;SDS011;18965;52.242;20.886;2023-02-15T20:26:42;253.63;;;95.95;;
32523;SDS011;18965;52.242;20.886;2023-02-15T20:29:15;252.43;;;95.80;;
32523;SDS011;18965;52.242;20.886;2023-02-15T20:31:42;253.52;;;94.38;;
32523;SDS011;18965;52.242;20.886;2023-02-15T20:34:09;255.05;;;97.82;;
32523;SDS011;18965;52.242;20.886;2023-02-15T20:36:35;257.48;;;96.15;;
32523;SDS011;18965;52.242;20.886;2023-02-15T20:39:03;262.27;;;97.50;;
32523;SDS011;18965;52.242;20.886;2023-02-15T20:41:36;265.23;;;96.95;;
32523;SDS011;18965;52.242;20.886;2023-02-15T20:44:18;256.95;;;96.25;;
32523;SDS011;18965;52.242;20.886;2023-02-15T20:46:44;257.60;;;96.32;;
32523;SDS011;18965;52.242;20.886;2023-02-15T20:49:10;262.75;;;99.10;;
32523;SDS011;18965;52.242;20.886;2023-02-15T20:51:36;265.10;;;100.75;;
32523;SDS011;18965;52.242;20.886;2023-02-15T20:54:07;262.02;;;102.03;;
32523;SDS011;18965;52.242;20.886;2023-02-15T20:56:37;265.38;;;100.28;;
32523;SDS011;18965;52.242;20.886;2023-02-15T20:59:05;258.10;;;97.25;;
32523;SDS011;18965;52.242;20.886;2023-02-15T21:01:53;259.60;;;97.43;;
32523;SDS011;18965;52.242;20.886;2023-02-15T21:04:22;253.52;;;96.88;;
32523;SDS011;18965;52.242;20.886;2023-02-15T21:06:53;252.45;;;97.55;;
32523;SDS011;18965;52.242;20.886;2023-02-15T21:09:19;258.52;;;97.72;;
32523;SDS011;18965;52.242;20.886;2023-02-15T21:11:45;249.05;;;97.20;;
32523;SDS011;18965;52.242;20.886;2023-02-15T21:14:17;253.52;;;96.30;;
32523;SDS011;18965;52.242;20.886;2023-02-15T21:16:44;246.40;;;94.28;;
32523;SDS011;18965;52.242;20.886;2023-02-15T21:19:14;249.38;;;95.10;;
32523;SDS011;18965;52.242;20.886;2023-02-15T21:21:42;252.23;;;97.85;;
32523;SDS011;18965;52.242;20.886;2023-02-15T21:24:19;250.23;;;96.82;;
32523;SDS011;18965;52.242;20.886;2023-02-15T21:26:48;255.27;;;97.45;;
32523;SDS011;18965;52.242;20.886;2023-02-15T21:29:22;254.65;;;96.97;;
32523;SDS011;18965;52.242;20.886;2023-02-15T21:31:49;254.40;;;97.07;;
32523;SDS011;18965;52.242;20.886;2023-02-15T21:34:15;247.38;;;95.63;;
32523;SDS011;18965;52.242;20.886;2023-02-15T21:36:44;257.73;;;97.40;;
32523;SDS011;18965;52.242;20.886;2023-02-15T21:39:20;266.13;;;100.60;;
32523;SDS011;18965;52.242;20.886;2023-02-15T21:41:48;268.52;;;103.20;;
32523;SDS011;18965;52.242;20.886;2023-02-15T21:44:34;265.30;;;103.00;;
32523;SDS011;18965;52.242;20.886;2023-02-15T21:47:24;266.33;;;101.57;;
32523;SDS011;18965;52.242;20.886;2023-02-15T21:50:10;258.83;;;98.07;;
32523;SDS011;18965;52.242;20.886;2023-02-15T21:52:56;257.13;;;99.80;;
32523;SDS011;18965;52.242;20.886;2023-02-15T21:55:23;274.30;;;99.53;;
32523;SDS011;18965;52.242;20.886;2023-02-15T21:57:50;247.05;;;94.43;;
32523;SDS011;18965;52.242;20.886;2023-02-15T22:00:19;256.35;;;98.68;;
32523;SDS011;18965;52.242;20.886;2023-02-15T22:02:47;253.88;;;96.55;;
32523;SDS011;18965;52.242;20.886;2023-02-15T22:05:17;251.23;;;96.82;;
32523;SDS011;18965;52.242;20.886;2023-02-15T22:07:44;253.07;;;96.03;;
32523;SDS011;18965;52.242;20.886;2023-02-15T22:10:11;246.95;;;97.57;;
32523;SDS011;18965;52.242;20.886;2023-02-15T22:12:37;250.07;;;98.82;;
32523;SDS011;18965;52.242;20.886;2023-02-15T22:15:04;255.75;;;101.75;;
32523;SDS011;18965;52.242;20.886;2023-02-15T22:17:30;254.13;;;96.78;;
32523;SDS011;18965;52.242;20.886;2023-02-15T22:19:58;246.70;;;95.53;;
32523;SDS011;18965;52.242;20.886;2023-02-15T22:22:24;241.63;;;94.63;;
32523;SDS011;18965;52.242;20.886;2023-02-15T22:24:50;250.48;;;95.93;;
32523;SDS011;18965;52.242;20.886;2023-02-15T22:27:17;243.85;;;95.53;;
32523;SDS011;18965;52.242;20.886;2023-02-15T22:29:45;243.37;;;94.87;;
32523;SDS011;18965;52.242;20.886;2023-02-15T22:32:18;249.65;;;97.63;;
32523;SDS011;18965;52.242;20.886;2023-02-15T22:34:45;240.15;;;93.97;;
32523;SDS011;18965;52.242;20.886;2023-02-15T22:37:11;238.63;;;94.10;;
32523;SDS011;18965;52.242;20.886;2023-02-15T22:39:37;246.13;;;93.55;;
32523;SDS011;18965;52.242;20.886;2023-02-15T22:42:03;238.45;;;94.28;;
32523;SDS011;18965;52.242;20.886;2023-02-15T22:44:31;246.15;;;94.80;;
32523;SDS011;18965;52.242;20.886;2023-02-15T22:46:58;240.55;;;94.72;;
32523;SDS011;18965;52.242;20.886;2023-02-15T22:49:25;244.93;;;96.25;;
32523;SDS011;18965;52.242;20.886;2023-02-15T22:51:51;241.80;;;93.70;;
32523;SDS011;18965;52.242;20.886;2023-02-15T22:54:17;235.95;;;92.85;;
32523;SDS011;18965;52.242;20.886;2023-02-15T22:56:50;244.98;;;94.25;;
32523;SDS011;18965;52.242;20.886;2023-02-15T22:59:21;237.38;;;94.70;;
32523;SDS011;18965;52.242;20.886;2023-02-15T23:01:50;239.60;;;93.50;;
32523;SDS011;18965;52.242;20.886;2023-02-15T23:04:18;242.48;;;94.60;;
32523;SDS011;18965;52.242;20.886;2023-02-15T23:06:46;240.45;;;94.05;;
32523;SDS011;18965;52.242;20.886;2023-02-15T23:09:12;240.65;;;94.50;;
32523;SDS011;18965;52.242;20.886;2023-02-15T23:11:39;238.77;;;95.30;;
32523;SDS011;18965;52.242;20.886;2023-02-15T23:14:09;243.02;;;95.32;;
32523;SDS011;18965;52.242;20.886;2023-02-15T23:16:42;242.23;;;95.75;;
32523;SDS011;18965;52.242;20.886;2023-02-15T23:19:09;246.00;;;96.53;;
32523;SDS011;18965;52.242;20.886;2023-02-15T23:21:39;243.52;;;95.32;;
32523;SDS011;18965;52.242;20.886;2023-02-15T23:24:38;248.35;;;95.15;;
32523;SDS011;18965;52.242;20.886;2023-02-15T23:26:58;245.80;;;96.05;;
32523;SDS011;18965;52.242;20.886;2023-02-15T23:29:44;235.25;;;96.18;;
32523;SDS011;18965;52.242;20.886;2023-02-15T23:32:11;243.43;;;97.22;;
32523;SDS011;18965;52.242;20.886;2023-02-15T23:34:37;237.38;;;95.75;;
32523;SDS011;18965;52.242;20.886;2023-02-15T23:37:03;242.45;;;97.18;;
32523;SDS011;18965;52.242;20.886;2023-02-15T23:39:29;254.13;;;98.45;;
32523;SDS011;18965;52.242;20.886;2023-02-15T23:44:40;245.13;;;97.05;;
32523;SDS011;18965;52.242;20.886;2023-02-15T23:47:18;245.43;;;97.55;;
32523;SDS011;18965;52.242;20.886;2023-02-15T23:49:44;244.40;;;97.63;;
32523;SDS011;18965;52.242;20.886;2023-02-15T23:52:10;247.65;;;96.18;;
32523;SDS011;18965;52.242;20.886;2023-02-15T23:54:36;256.92;;;98.28;;
32523;SDS011;18965;52.242;20.886;2023-02-15T23:57:02;248.98;;;99.97;;
32523;SDS011;18965;52.242;20.886;2023-02-15T23:59:29;252.68;;;98.15;;
